createdAt,value
2018-12-27T00:01:32.072Z,89.67
2018-12-27T00:03:58.189Z,89.34
2018-12-27T00:06:24.029Z,89.44
2018-12-27T00:08:53.028Z,89.37
2018-12-27T00:11:19.194Z,88.81
2018-12-27T00:13:48.256Z,89.04
2018-12-27T00:16:14.078Z,89.77
2018-12-27T00:18:40.541Z,90.19
2018-12-27T00:21:06.917Z,90.04
2018-12-27T00:23:35.658Z,89.90
2018-12-27T00:26:01.477Z,89.92
2018-12-27T00:28:30.573Z,89.75
2018-12-27T00:30:56.401Z,89.79
2018-12-27T00:33:25.260Z,89.53
2018-12-27T00:35:51.094Z,89.58
2018-12-27T00:38:17.247Z,89.70
2018-12-27T00:40:43.103Z,89.53
2018-12-27T00:43:09.231Z,89.78
2018-12-27T00:45:38.411Z,89.88
2018-12-27T00:48:04.288Z,89.88
2018-12-27T00:50:31.605Z,89.85
2018-12-27T00:52:57.471Z,89.63
2018-12-27T00:55:28.353Z,89.53
2018-12-27T00:57:54.246Z,89.41
2018-12-27T01:00:23.411Z,89.70
2018-12-27T01:02:50.720Z,90.04
2018-12-27T01:05:16.804Z,90.26
2018-12-27T01:07:42.907Z,90.19
2018-12-27T01:10:11.560Z,89.74
2018-12-27T01:12:37.393Z,89.34
2018-12-27T01:15:03.275Z,89.34
2018-12-27T01:17:29.384Z,89.42
2018-12-27T01:19:55.566Z,89.46
2018-12-27T01:22:24.374Z,89.46
2018-12-27T01:24:50.219Z,89.36
2018-12-27T01:27:18.870Z,89.24
2018-12-27T01:29:44.810Z,89.39
2018-12-27T01:32:13.469Z,89.12
2018-12-27T01:34:39.415Z,89.12
2018-12-27T01:37:06.920Z,90.02
2018-12-27T01:39:32.762Z,89.94
2018-12-27T01:42:01.360Z,89.92
2018-12-27T01:44:27.194Z,89.61
2018-12-27T01:46:57.804Z,89.43
2018-12-27T01:49:23.641Z,89.49
2018-12-27T01:51:49.470Z,89.44
2018-12-27T01:54:15.321Z,89.75
2018-12-27T01:56:41.190Z,90.14
2018-12-27T01:59:09.777Z,90.20
2018-12-27T02:01:35.645Z,89.80
2018-12-27T02:04:04.474Z,89.51
2018-12-27T02:06:30.615Z,89.17
2018-12-27T02:08:59.579Z,89.40
2018-12-27T02:11:25.416Z,89.40
2018-12-27T02:13:54.020Z,89.69
2018-12-27T02:16:20.223Z,89.44
2018-12-27T02:18:46.495Z,89.06
2018-12-27T02:21:12.277Z,89.04
2018-12-27T02:23:43.290Z,89.93
2018-12-27T02:26:09.152Z,89.94
2018-12-27T02:28:35.089Z,89.77
2018-12-27T02:31:00.953Z,89.48
2018-12-27T02:33:35.078Z,89.01
2018-12-27T02:35:54.551Z,88.94
2018-12-27T02:38:20.632Z,88.63
2018-12-27T02:40:47.749Z,88.85
2018-12-27T02:43:13.613Z,89.15
2018-12-27T02:45:44.035Z,89.07
2018-12-27T02:48:10.096Z,88.91
2018-12-27T02:50:38.752Z,89.40
2018-12-27T02:53:04.574Z,89.41
2018-12-27T02:55:31.517Z,89.65
2018-12-27T03:00:27.832Z,89.76
2018-12-27T03:02:53.965Z,89.42
2018-12-27T03:05:19.923Z,88.62
2018-12-27T03:07:45.747Z,89.28
2018-12-27T03:10:11.932Z,89.33
2018-12-27T03:12:40.856Z,89.21
2018-12-27T03:15:06.678Z,89.08
2018-12-27T03:17:35.572Z,88.25
2018-12-27T03:20:01.705Z,87.89
2018-12-27T03:22:27.544Z,88.44
2018-12-27T03:24:54.211Z,88.65
2018-12-27T03:27:22.516Z,88.74
2018-12-27T03:29:48.312Z,88.62
2018-12-27T03:32:18.907Z,88.79
2018-12-27T03:34:44.741Z,89.62
2018-12-27T03:37:13.736Z,89.84
2018-12-27T03:39:39.580Z,89.48
2018-12-27T03:42:05.717Z,89.25
2018-12-27T03:44:31.570Z,89.10
2018-12-27T03:46:57.720Z,89.37
2018-12-27T03:49:23.556Z,89.43
2018-12-27T03:51:49.385Z,89.16
2018-12-27T03:54:17.705Z,89.74
2018-12-27T03:56:43.966Z,89.86
2018-12-27T03:59:12.653Z,89.57
2018-12-27T04:01:38.507Z,89.25
2018-12-27T04:04:07.471Z,89.49
2018-12-27T04:06:33.617Z,89.54
2018-12-27T04:09:04.102Z,89.29
2018-12-27T04:11:29.973Z,89.55
2018-12-27T04:13:57.204Z,89.43
2018-12-27T04:16:23.389Z,89.75
2018-12-27T04:18:49.477Z,89.37
2018-12-27T04:21:15.331Z,89.28
2018-12-27T04:23:41.292Z,89.10
2018-12-27T04:26:10.642Z,88.86
2018-12-27T04:28:36.455Z,88.86
2018-12-27T04:31:03.649Z,88.94
2018-12-27T04:33:33.532Z,88.87
2018-12-27T04:35:59.734Z,89.15
2018-12-27T04:38:25.598Z,89.38
2018-12-27T04:40:54.521Z,89.49
2018-12-27T04:43:20.723Z,89.13
2018-12-27T04:45:49.384Z,88.90
2018-12-27T04:48:15.477Z,88.88
2018-12-27T04:50:44.375Z,88.90
2018-12-27T04:53:10.542Z,88.71
2018-12-27T04:55:36.762Z,88.72
2018-12-27T04:58:02.630Z,89.50
2018-12-27T05:00:28.487Z,89.35
2018-12-27T05:02:54.712Z,89.05
2018-12-27T05:05:20.538Z,88.80
2018-12-27T05:07:49.394Z,88.80
2018-12-27T05:10:15.203Z,88.86
2018-12-27T05:12:43.919Z,89.12
2018-12-27T05:15:09.758Z,89.22
2018-12-27T05:17:40.276Z,89.48
2018-12-27T05:20:06.086Z,89.65
2018-12-27T05:22:35.012Z,89.91
2018-12-27T05:25:00.832Z,89.96
2018-12-27T05:27:29.955Z,89.95
2018-12-27T05:29:55.786Z,90.18
2018-12-27T05:32:21.647Z,89.16
2018-12-27T05:34:47.547Z,88.98
2018-12-27T05:37:13.329Z,87.68
2018-12-27T05:39:42.346Z,87.57
2018-12-27T05:42:08.187Z,88.08
2018-12-27T05:44:34.290Z,88.42
2018-12-27T05:47:00.135Z,88.21
2018-12-27T05:49:29.061Z,88.31
2018-12-27T05:51:54.871Z,89.68
2018-12-27T05:54:23.766Z,89.99
2018-12-27T05:56:49.642Z,89.87
2018-12-27T05:59:17.982Z,89.79
2018-12-27T06:01:44.124Z,89.53
2018-12-27T06:04:15.079Z,89.27
2018-12-27T06:06:40.894Z,89.31
2018-12-27T06:09:06.973Z,89.36
2018-12-27T06:11:32.846Z,89.17
2018-12-27T06:13:58.688Z,88.99
2018-12-27T06:16:24.631Z,89.01
2018-12-27T06:18:50.721Z,88.63
2018-12-27T06:21:20.191Z,88.57
2018-12-27T06:23:46.025Z,89.03
2018-12-27T06:26:14.380Z,88.20
2018-12-27T06:28:40.492Z,89.37
2018-12-27T06:31:09.479Z,89.51
2018-12-27T06:33:36.042Z,89.23
2018-12-27T06:36:04.964Z,89.35
2018-12-27T06:38:30.821Z,89.00
2018-12-27T06:40:59.914Z,89.17
2018-12-27T06:43:25.784Z,88.49
2018-12-27T06:45:51.615Z,88.52
2018-12-27T06:48:17.757Z,88.59
2018-12-27T06:50:43.892Z,88.59
2018-12-27T06:53:12.821Z,88.55
2018-12-27T06:55:38.652Z,88.45
2018-12-27T06:58:04.630Z,88.32
2018-12-27T07:00:30.502Z,88.22
2018-12-27T07:02:59.789Z,88.02
2018-12-27T07:05:26.816Z,88.44
2018-12-27T07:07:56.175Z,88.66
2018-12-27T07:10:22.029Z,88.53
2018-12-27T07:12:50.984Z,88.29
2018-12-27T07:15:16.803Z,88.01
2018-12-27T07:17:45.450Z,87.78
2018-12-27T07:20:11.278Z,87.83
2018-12-27T07:22:37.356Z,87.63
2018-12-27T07:25:03.767Z,87.30
2018-12-27T07:27:29.575Z,87.21
2018-12-27T07:29:55.417Z,87.18
2018-12-27T07:32:21.570Z,87.04
2018-12-27T07:34:56.481Z,87.08
2018-12-27T07:37:20.052Z,87.01
2018-12-27T07:39:46.163Z,87.04
2018-12-27T07:42:12.233Z,87.30
2018-12-27T07:44:41.397Z,87.46
2018-12-27T07:47:07.522Z,87.91
2018-12-27T07:49:36.252Z,87.83
2018-12-27T07:52:02.126Z,87.69
2018-12-27T07:54:31.130Z,87.43
2018-12-27T07:56:57.000Z,86.93
2018-12-27T07:59:23.170Z,84.83
2018-12-27T08:01:49.005Z,82.66
2018-12-27T08:04:14.876Z,79.45
2018-12-27T08:06:41.035Z,74.82
2018-12-27T08:09:07.132Z,71.54
2018-12-27T08:11:36.040Z,70.52
2018-12-27T08:14:01.831Z,67.75
2018-12-27T08:16:30.505Z,64.11
2018-12-27T08:18:56.561Z,58.54
2018-12-27T08:21:25.419Z,55.64
2018-12-27T08:23:51.277Z,54.11
2018-12-27T08:26:19.921Z,52.93
2018-12-27T08:28:46.136Z,51.79
2018-12-27T08:31:17.079Z,50.33
2018-12-27T08:33:43.061Z,48.24
2018-12-27T08:36:09.175Z,46.64
2018-12-27T08:38:35.026Z,47.48
2018-12-27T08:41:01.009Z,48.58
2018-12-27T08:43:26.856Z,51.07
2018-12-27T08:45:52.987Z,55.85
2018-12-27T08:48:21.580Z,58.65
2018-12-27T08:50:48.239Z,61.63
2018-12-27T08:53:15.328Z,65.53
2018-12-27T08:55:41.176Z,69.52
2018-12-27T08:58:10.591Z,70.89
2018-12-27T09:00:37.793Z,72.12
2018-12-27T09:03:05.763Z,72.94
2018-12-27T09:05:31.998Z,73.97
2018-12-27T09:08:00.582Z,75.10
2018-12-27T09:10:26.447Z,75.03
2018-12-27T09:12:52.289Z,76.35
2018-12-27T09:15:18.140Z,77.05
2018-12-27T09:17:43.978Z,77.63
2018-12-27T09:20:12.965Z,77.60
2018-12-27T09:22:38.825Z,76.84
2018-12-27T09:25:07.895Z,76.49
2018-12-27T09:27:33.731Z,76.93
2018-12-27T09:30:01.002Z,77.06
2018-12-27T09:32:27.129Z,76.51
2018-12-27T09:34:55.596Z,77.52
2018-12-27T09:37:21.700Z,77.28
2018-12-27T09:39:52.471Z,77.12
2018-12-27T09:42:27.067Z,77.59
2018-12-27T09:44:53.289Z,78.64
2018-12-27T09:47:19.450Z,77.03
2018-12-27T09:49:45.310Z,76.00
2018-12-27T09:52:11.143Z,75.93
2018-12-27T09:54:37.284Z,75.26
2018-12-27T09:57:03.106Z,74.31
2018-12-27T09:59:28.943Z,74.57
2018-12-27T10:01:54.787Z,75.31
2018-12-27T10:04:27.776Z,75.12
2018-12-27T10:06:54.167Z,74.88
2018-12-27T10:09:19.977Z,75.06
2018-12-27T10:11:45.837Z,74.88
2018-12-27T10:14:11.660Z,75.09
2018-12-27T10:16:38.154Z,75.08
2018-12-27T10:19:03.959Z,74.19
2018-12-27T10:21:32.919Z,73.61
2018-12-27T10:23:58.739Z,70.45
2018-12-27T10:26:24.871Z,66.74
2018-12-27T10:28:50.779Z,66.62
2018-12-27T10:31:16.683Z,64.63
2018-12-27T10:33:42.540Z,64.10
2018-12-27T10:36:08.676Z,62.17
2018-12-27T10:38:37.599Z,60.18
2018-12-27T10:41:03.728Z,60.86
2018-12-27T10:43:32.434Z,60.48
2018-12-27T10:46:01.924Z,58.88
2018-12-27T10:48:28.130Z,58.36
2018-12-27T10:50:53.928Z,57.27
2018-12-27T10:53:21.412Z,53.91
2018-12-27T10:55:47.279Z,52.67
2018-12-27T10:58:15.900Z,51.63
2018-12-27T11:00:41.741Z,51.78
2018-12-27T11:03:07.608Z,50.83
2018-12-27T11:05:33.425Z,50.84
2018-12-27T11:07:59.286Z,51.68
2018-12-27T11:10:28.117Z,51.41
2018-12-27T11:12:53.981Z,52.37
2018-12-27T11:15:22.653Z,53.03
2018-12-27T11:17:48.498Z,53.10
2018-12-27T11:20:17.107Z,52.82
2018-12-27T11:22:42.953Z,52.37
2018-12-27T11:25:12.151Z,53.49
2018-12-27T11:27:38.252Z,54.33
2018-12-27T11:30:07.280Z,55.49
2018-12-27T11:32:33.510Z,54.67
2018-12-27T11:35:02.637Z,54.57
2018-12-27T11:37:28.470Z,53.83
2018-12-27T11:39:54.586Z,53.79
2018-12-27T11:42:20.430Z,55.15
2018-12-27T11:44:46.584Z,54.53
2018-12-27T11:47:13.525Z,55.04
2018-12-27T11:49:39.406Z,55.74
2018-12-27T11:52:08.274Z,57.17
2018-12-27T11:54:34.363Z,58.26
2018-12-27T11:57:03.328Z,57.19
2018-12-27T11:59:29.890Z,58.18
2018-12-27T12:01:57.349Z,59.54
2018-12-27T12:04:23.173Z,56.42
2018-12-27T12:06:51.431Z,56.45
2018-12-27T12:09:17.301Z,56.24
2018-12-27T12:11:45.643Z,56.89
2018-12-27T12:14:11.572Z,57.95
2018-12-27T12:16:37.380Z,57.11
2018-12-27T12:19:03.269Z,58.20
2018-12-27T12:21:29.092Z,58.96
2018-12-27T12:23:58.312Z,58.34
2018-12-27T12:26:24.172Z,59.06
2018-12-27T12:28:53.525Z,58.31
2018-12-27T12:31:19.662Z,58.34
2018-12-27T12:33:48.227Z,60.31
2018-12-27T12:36:14.067Z,59.00
2018-12-27T12:38:42.137Z,58.07
2018-12-27T12:41:08.192Z,57.89
2018-12-27T12:43:38.612Z,57.26
2018-12-27T12:46:04.460Z,58.23
2018-12-27T12:48:31.498Z,59.40
2018-12-27T12:50:57.323Z,59.40
2018-12-27T12:53:23.444Z,58.75
2018-12-27T12:55:49.562Z,59.52
2018-12-27T12:58:16.652Z,59.45
2018-12-27T13:00:44.162Z,60.48
2018-12-27T13:03:10.018Z,60.70
2018-12-27T13:05:38.862Z,60.62
2018-12-27T13:08:04.974Z,60.57
2018-12-27T13:10:33.561Z,62.51
2018-12-27T13:12:59.701Z,64.40
2018-12-27T13:15:28.576Z,65.10
2018-12-27T13:17:54.692Z,66.30
2018-12-27T13:20:23.540Z,68.90
2018-12-27T13:22:49.360Z,70.00
2018-12-27T13:25:17.977Z,68.40
2018-12-27T13:27:44.103Z,69.48
2018-12-27T13:30:10.034Z,67.92
2018-12-27T13:32:36.135Z,69.57
2018-12-27T13:35:02.343Z,69.83
2018-12-27T13:37:31.014Z,69.95
2018-12-27T13:39:57.135Z,69.77
2018-12-27T13:42:26.300Z,70.45
2018-12-27T13:44:52.172Z,70.70
2018-12-27T13:47:18.286Z,71.49
2018-12-27T13:49:44.134Z,71.74
2018-12-27T13:52:12.648Z,71.70
2018-12-27T13:54:38.453Z,72.52
2018-12-27T13:57:09.241Z,72.09
2018-12-27T13:59:35.064Z,72.74
2018-12-27T14:02:03.689Z,72.92
2018-12-27T14:04:29.594Z,73.06
2018-12-27T14:06:55.449Z,73.06
2018-12-27T14:09:21.299Z,73.16
2018-12-27T14:11:50.484Z,73.21
2018-12-27T14:14:16.732Z,73.34
2018-12-27T14:16:42.577Z,73.52
2018-12-27T14:19:08.522Z,74.24
2018-12-27T14:21:35.067Z,74.18
2018-12-27T14:24:03.791Z,74.61
2018-12-27T14:26:29.614Z,74.81
2018-12-27T14:29:00.113Z,75.47
2018-12-27T14:31:25.971Z,75.82
2018-12-27T14:33:54.575Z,76.42
2018-12-27T14:36:20.704Z,76.66
2018-12-27T14:38:49.897Z,76.67
2018-12-27T14:41:15.716Z,77.48
2018-12-27T14:43:41.572Z,77.74
2018-12-27T14:46:07.660Z,78.04
2018-12-27T14:48:33.516Z,77.70
2018-12-27T14:50:59.344Z,77.90
2018-12-27T14:53:25.604Z,78.30
2018-12-27T14:55:54.490Z,79.07
2018-12-27T14:58:20.577Z,79.37
2018-12-27T15:00:48.617Z,79.75
2018-12-27T15:03:14.449Z,80.08
2018-12-27T15:05:43.419Z,80.43
2018-12-27T15:08:09.924Z,80.56
2018-12-27T15:10:37.940Z,80.96
2018-12-27T15:13:03.781Z,81.37
2018-12-27T15:15:35.574Z,81.87
2018-12-27T15:18:01.409Z,82.19
2018-12-27T15:20:27.240Z,82.53
2018-12-27T15:22:53.078Z,82.37
2018-12-27T15:25:18.924Z,82.78
2018-12-27T15:27:44.759Z,83.10
2018-12-27T15:30:30.740Z,83.20
2018-12-27T15:32:56.815Z,83.68
2018-12-27T15:35:22.666Z,83.85
2018-12-27T15:37:48.785Z,83.78
2018-12-27T15:40:14.628Z,83.75
2018-12-27T15:42:40.710Z,83.62
2018-12-27T15:45:06.854Z,84.11
2018-12-27T15:47:32.722Z,84.35
2018-12-27T15:49:58.678Z,84.58
2018-12-27T15:52:26.290Z,84.58
2018-12-27T15:54:52.139Z,85.19
2018-12-27T15:57:17.987Z,85.63
2018-12-27T15:59:44.125Z,85.83
2018-12-27T16:02:10.040Z,86.35
2018-12-27T16:04:35.874Z,87.25
2018-12-27T16:07:02.263Z,86.44
2018-12-27T16:09:28.141Z,86.31
2018-12-27T16:11:55.023Z,86.36
2018-12-27T16:14:20.918Z,86.62
2018-12-27T16:16:46.777Z,87.39
2018-12-27T16:19:13.899Z,87.69
2018-12-27T16:21:40.971Z,88.03
2018-12-27T16:24:10.174Z,87.87
2018-12-27T16:26:36.293Z,88.21
2018-12-27T16:29:03.701Z,88.21
2018-12-27T16:31:29.541Z,88.24
2018-12-27T16:33:55.408Z,87.99
2018-12-27T16:36:21.239Z,87.49
2018-12-27T16:38:47.034Z,87.94
2018-12-27T16:41:15.163Z,88.47
2018-12-27T16:43:41.007Z,88.46
2018-12-27T16:46:09.328Z,87.99
2018-12-27T16:48:35.160Z,87.53
2018-12-27T16:51:01.220Z,88.16
2018-12-27T16:53:27.024Z,88.67
2018-12-27T16:55:52.842Z,88.66
2018-12-27T16:58:23.718Z,88.83
2018-12-27T17:00:49.581Z,88.82
2018-12-27T17:03:18.198Z,89.06
2018-12-27T17:05:44.302Z,89.11
2018-12-27T17:08:13.480Z,88.77
2018-12-27T17:10:39.563Z,88.67
2018-12-27T17:13:08.362Z,88.90
2018-12-27T17:15:34.185Z,88.66
2018-12-27T17:18:03.223Z,88.40
2018-12-27T17:20:29.183Z,88.08
2018-12-27T17:22:55.160Z,89.14
2018-12-27T17:25:21.263Z,89.23
2018-12-27T17:27:50.416Z,89.29
2018-12-27T17:30:16.282Z,89.25
2018-12-27T17:32:44.854Z,89.49
2018-12-27T17:35:10.718Z,89.23
2018-12-27T17:37:40.876Z,89.42
2018-12-27T17:40:06.689Z,89.41
2018-12-27T17:42:35.344Z,89.78
2018-12-27T17:45:01.190Z,89.90
2018-12-27T17:47:27.345Z,89.69
2018-12-27T17:49:53.207Z,89.75
2018-12-27T17:52:19.016Z,90.39
2018-12-27T17:54:47.743Z,90.81
2018-12-27T17:57:13.599Z,90.65
2018-12-27T17:59:40.851Z,90.65
2018-12-27T18:02:06.721Z,90.78
2018-12-27T18:04:35.737Z,90.91
2018-12-27T18:07:01.564Z,91.13
2018-12-27T18:09:30.433Z,90.97
2018-12-27T18:11:56.278Z,90.93
2018-12-27T18:14:25.406Z,90.87
2018-12-27T18:16:51.537Z,90.67
2018-12-27T18:19:20.135Z,90.32
2018-12-27T18:21:45.981Z,90.21
2018-12-27T18:24:12.090Z,90.35
2018-12-27T18:26:37.952Z,90.57
2018-12-27T18:29:03.791Z,90.63
2018-12-27T18:31:32.723Z,90.88
2018-12-27T18:33:58.907Z,90.88
2018-12-27T18:36:25.866Z,90.63
2018-12-27T18:38:52.023Z,90.55
2018-12-27T18:41:22.923Z,90.43
2018-12-27T18:43:48.766Z,90.55
2018-12-27T18:46:17.364Z,90.53
2018-12-27T18:48:43.173Z,90.46
2018-12-27T18:51:11.788Z,90.39
2018-12-27T18:53:37.872Z,90.30
2018-12-27T18:56:06.529Z,90.55
2018-12-27T18:58:32.280Z,90.22
2018-12-27T19:00:58.164Z,90.22
2018-12-27T19:03:24.320Z,90.26
2018-12-27T19:05:50.528Z,90.57
2018-12-27T19:08:16.375Z,90.66
2018-12-27T19:10:42.220Z,90.74
2018-12-27T19:13:12.738Z,90.53
2018-12-27T19:15:45.072Z,90.37
2018-12-27T19:18:23.529Z,90.78
2018-12-27T19:20:51.974Z,91.09
2018-12-27T19:23:17.823Z,91.09
2018-12-27T19:25:43.686Z,91.06
2018-12-27T19:28:09.510Z,91.12
2018-12-27T19:30:35.702Z,90.98
2018-12-27T19:33:01.570Z,90.86
2018-12-27T19:35:27.390Z,90.88
2018-12-27T19:37:53.570Z,91.30
2018-12-27T19:40:19.734Z,91.57
2018-12-27T19:42:45.855Z,91.30
2018-12-27T19:45:12.009Z,91.31
2018-12-27T19:47:38.154Z,91.30
2018-12-27T19:50:04.128Z,91.32
2018-12-27T19:52:29.959Z,91.33
2018-12-27T19:54:56.069Z,91.33
2018-12-27T19:57:22.299Z,91.34
2018-12-27T19:59:52.767Z,91.27
2018-12-27T20:02:18.854Z,90.98
2018-12-27T20:04:44.992Z,90.88
2018-12-27T20:07:10.864Z,90.08
2018-12-27T20:09:36.689Z,89.80
2018-12-27T20:12:02.547Z,90.18
2018-12-27T20:14:28.376Z,90.73
2018-12-27T20:16:54.592Z,90.64
2018-12-27T20:19:20.486Z,90.64
2018-12-27T20:21:49.028Z,90.63
2018-12-27T20:24:15.092Z,90.73
2018-12-27T20:26:43.967Z,90.68
2018-12-27T20:29:09.830Z,90.99
2018-12-27T20:31:38.421Z,90.92
2018-12-27T20:34:07.595Z,90.37
2018-12-27T20:36:33.571Z,91.07
2018-12-27T20:38:59.670Z,91.14
2018-12-27T20:41:28.889Z,90.68
2018-12-27T20:43:55.018Z,90.89
2018-12-27T20:46:20.994Z,90.91
2018-12-27T20:48:47.130Z,90.98
2018-12-27T20:51:12.984Z,90.44
2018-12-27T20:53:38.824Z,89.86
2018-12-27T20:56:04.771Z,89.63
2018-12-27T20:58:33.633Z,90.09
2018-12-27T21:00:59.465Z,90.45
2018-12-27T21:03:27.226Z,90.23
2018-12-27T21:05:53.075Z,90.37
2018-12-27T21:08:21.933Z,89.44
2018-12-27T21:10:47.755Z,89.81
2018-12-27T21:13:16.913Z,90.81
2018-12-27T21:15:42.749Z,90.85
2018-12-27T21:18:13.077Z,90.71
2018-12-27T21:20:38.932Z,90.03
2018-12-27T21:23:07.974Z,90.38
2018-12-27T21:25:33.801Z,90.43
2018-12-27T21:27:59.647Z,90.50
2018-12-27T21:30:25.730Z,91.00
2018-12-27T21:32:51.885Z,91.31
2018-12-27T21:35:17.763Z,91.09
2018-12-27T21:37:43.604Z,91.18
2018-12-27T21:40:14.667Z,90.97
2018-12-27T21:42:40.641Z,91.11
2018-12-27T21:45:09.521Z,90.81
2018-12-27T21:47:35.378Z,90.81
2018-12-27T21:50:04.385Z,90.81
2018-12-27T21:52:30.543Z,90.31
2018-12-27T21:54:56.684Z,89.99
2018-12-27T21:57:22.810Z,90.67
2018-12-27T21:59:51.484Z,90.94
2018-12-27T22:02:17.447Z,91.29
2018-12-27T22:04:43.613Z,91.18
2018-12-27T22:07:09.700Z,90.96
2018-12-27T22:09:35.789Z,91.21
2018-12-27T22:12:04.553Z,91.21
2018-12-27T22:14:30.360Z,91.63
2018-12-27T22:16:59.358Z,92.12
2018-12-27T22:19:25.492Z,92.68
2018-12-27T22:21:54.120Z,92.68
2018-12-27T22:24:19.945Z,92.30
2018-12-27T22:26:47.422Z,92.35
2018-12-27T22:29:13.242Z,92.32
2018-12-27T22:31:41.733Z,92.30
2018-12-27T22:34:07.561Z,92.04
2018-12-27T22:36:38.150Z,91.55
2018-12-27T22:39:06.104Z,91.45
2018-12-27T22:41:31.909Z,91.64
2018-12-27T22:43:57.756Z,91.72
2018-12-27T22:46:23.692Z,91.53
2018-12-27T22:48:49.816Z,91.35
2018-12-27T22:51:16.026Z,91.50
2018-12-27T22:53:45.702Z,91.83
2018-12-27T22:56:11.829Z,91.69
2018-12-27T22:58:38.078Z,91.81
2018-12-27T23:01:04.307Z,91.02
2018-12-27T23:03:33.684Z,91.20
2018-12-27T23:05:59.818Z,91.43
2018-12-27T23:08:28.687Z,91.09
2018-12-27T23:10:54.625Z,91.43
2018-12-27T23:13:21.950Z,91.07
2018-12-27T23:15:47.926Z,90.82
2018-12-27T23:18:13.749Z,90.50
2018-12-27T23:20:39.587Z,90.81
2018-12-27T23:23:11.318Z,91.11
2018-12-27T23:25:36.397Z,91.12
2018-12-27T23:28:02.351Z,90.85
2018-12-27T23:30:28.478Z,91.02
2018-12-27T23:32:57.897Z,91.27
2018-12-27T23:35:24.026Z,90.45
2018-12-27T23:37:49.853Z,90.78
2018-12-27T23:40:18.870Z,91.54
2018-12-27T23:42:44.715Z,92.12
2018-12-27T23:45:13.283Z,92.55
2018-12-27T23:47:39.123Z,92.54
2018-12-27T23:50:08.044Z,92.01
2018-12-27T23:52:34.197Z,92.18
2018-12-27T23:55:00.348Z,92.18
2018-12-27T23:57:26.165Z,92.34
2018-12-27T23:59:52.107Z,92.03
